Time;durP1;ratioP1;P1;durP2;ratioP2;P2;SDS_P1;SDS_P2;PMS_P1;PMS_P2;Temp;Humidity;BMP_temperature;BMP_pressure;BME280_temperature;BME280_humidity;BME280_pressure;Samples;Min_cycle;Max_cycle;Signal;HPM_P1;HPM_P2
2022/06/14 00:00:53;;;;;;;11.52;3.60;;;11.80;99.90;;;;;;5055223;28;20100;-62
2022/06/14 00:02:20;;;;;;;9.98;2.83;;;11.70;99.90;;;;;;5054796;28;20025;-64
2022/06/14 00:04:46;;;;;;;9.50;3.58;;;11.70;99.90;;;;;;5053555;28;20123;-64
2022/06/14 00:07:11;;;;;;;8.80;2.80;;;11.70;99.90;;;;;;5054897;28;20025;-65
2022/06/14 00:09:37;;;;;;;16.52;4.20;;;11.70;99.90;;;;;;5054938;28;20025;-66
2022/06/14 00:12:03;;;;;;;12.82;4.28;;;11.70;99.90;;;;;;5054899;28;20036;-67
2022/06/14 00:14:28;;;;;;;8.73;2.30;;;11.60;99.90;;;;;;5054667;28;20068;-62
2022/06/14 00:16:54;;;;;;;10.13;2.42;;;11.60;99.90;;;;;;5054706;28;20029;-63
2022/06/14 00:19:19;;;;;;;15.32;4.15;;;11.60;99.90;;;;;;5054782;28;20036;-64
2022/06/14 00:21:45;;;;;;;9.40;2.20;;;11.60;99.90;;;;;;5053321;28;20021;-63
2022/06/14 00:24:10;;;;;;;10.57;2.58;;;11.60;99.90;;;;;;5054707;28;20101;-65
2022/06/14 00:26:36;;;;;;;10.82;3.17;;;11.70;99.90;;;;;;5054842;28;20029;-64
2022/06/14 00:29:01;;;;;;;11.90;2.72;;;11.60;99.90;;;;;;5053816;28;20024;-63
2022/06/14 00:31:28;;;;;;;11.95;3.92;;;11.60;99.90;;;;;;5054895;28;20127;-64
2022/06/14 00:33:54;;;;;;;10.05;2.38;;;11.60;99.90;;;;;;5054499;28;20021;-63
2022/06/14 00:36:29;;;;;;;17.60;3.70;;;11.60;99.90;;;;;;5054756;28;20107;-65
2022/06/14 00:39:03;;;;;;;11.90;3.55;;;11.60;99.90;;;;;;5053434;28;20451;-63
2022/06/14 00:41:44;;;;;;;14.48;3.92;;;11.60;99.90;;;;;;5054787;28;20021;-63
2022/06/14 00:44:20;;;;;;;13.70;4.38;;;11.50;99.90;;;;;;5054906;28;20017;-64
2022/06/14 00:47:09;;;;;;;11.90;2.90;;;11.50;99.90;;;;;;5054132;28;20033;-63
2022/06/14 00:49:56;;;;;;;11.82;2.88;;;11.40;99.90;;;;;;5054205;28;20033;-62
2022/06/14 00:52:32;;;;;;;9.02;2.83;;;11.40;99.90;;;;;;5053987;28;20024;-63
2022/06/14 00:55:04;;;;;;;6.45;2.25;;;11.40;99.90;;;;;;5054002;28;20146;-63
2022/06/14 00:57:37;;;;;;;11.73;3.90;;;11.30;99.90;;;;;;5054055;28;20116;-66
2022/06/14 01:00:09;;;;;;;8.68;2.97;;;11.30;99.90;;;;;;5053930;28;20021;-67
2022/06/14 01:02:43;;;;;;;11.30;3.20;;;11.30;99.90;;;;;;5053128;28;20033;-65
2022/06/14 01:05:13;;;;;;;9.00;2.50;;;11.30;99.90;;;;;;5054253;28;20031;-64
2022/06/14 01:07:47;;;;;;;13.88;3.10;;;11.30;99.90;;;;;;5054281;28;20728;-66
2022/06/14 01:10:19;;;;;;;12.40;3.30;;;11.30;99.90;;;;;;5053468;28;20032;-65
2022/06/14 01:12:46;;;;;;;;;;;11.20;99.90;;;;;;5054025;28;20029;-64
2022/06/14 01:15:21;;;;;;;15.07;2.65;;;11.20;99.90;;;;;;5054002;28;20342;-67
2022/06/14 01:17:56;;;;;;;16.83;4.57;;;11.20;99.90;;;;;;5053897;28;20029;-63
2022/06/14 01:20:22;;;;;;;13.23;3.03;;;11.20;99.90;;;;;;5053817;28;20047;-63
2022/06/14 01:22:50;;;;;;;8.70;2.70;;;11.20;99.90;;;;;;5053729;28;20513;-68
2022/06/14 01:25:16;;;;;;;10.55;3.15;;;11.20;99.90;;;;;;5054225;28;20041;-64
2022/06/14 01:27:42;;;;;;;16.38;3.53;;;11.20;99.90;;;;;;5054013;28;20381;-65
2022/06/14 01:30:17;;;;;;;16.13;2.85;;;11.20;99.90;;;;;;5052497;28;20029;-64
2022/06/14 01:33:02;;;;;;;11.30;2.58;;;11.10;99.90;;;;;;5053711;28;20108;-66
2022/06/14 01:35:35;;;;;;;16.55;3.08;;;11.20;99.90;;;;;;5053716;28;20033;-66
2022/06/14 01:38:05;;;;;;;13.68;3.35;;;11.10;99.90;;;;;;5053585;28;20370;-62
2022/06/14 01:40:50;;;;;;;6.38;2.60;;;11.10;99.90;;;;;;5053825;28;20032;-65
2022/06/14 01:43:33;;;;;;;7.72;2.65;;;11.10;99.90;;;;;;5053416;28;20458;-66
2022/06/14 01:46:04;;;;;;;10.23;2.20;;;11.10;99.90;;;;;;5053616;28;20071;-62
2022/06/14 01:48:42;;;;;;;8.27;2.38;;;11.10;99.90;;;;;;5053532;28;20051;-65
2022/06/14 01:54:43;;;;;;;9.68;2.17;;;11.10;99.90;;;;;;5053491;28;20098;-65
2022/06/14 01:57:27;;;;;;;24.48;6.53;;;11.00;99.90;;;;;;5045432;28;20033;-64
2022/06/14 02:00:09;;;;;;;25.77;6.03;;;11.00;99.90;;;;;;5052941;28;20021;-64
2022/06/14 02:02:47;;;;;;;8.30;2.72;;;11.00;99.90;;;;;;5053495;28;20025;-64
2022/06/14 02:05:28;;;;;;;8.60;2.30;;;11.00;99.90;;;;;;5053283;28;20029;-63
2022/06/14 02:08:10;;;;;;;8.57;2.33;;;11.00;99.90;;;;;;5053668;28;20025;-63
2022/06/14 02:11:01;;;;;;;15.30;3.75;;;11.00;99.90;;;;;;5051995;28;20490;-63
2022/06/14 02:13:32;;;;;;;10.82;2.83;;;11.00;99.90;;;;;;5051829;28;20071;-63
2022/06/14 02:16:19;;;;;;;17.73;4.70;;;11.00;99.90;;;;;;5053057;28;20056;-64
2022/06/14 02:18:58;;;;;;;17.40;4.70;;;10.90;99.90;;;;;;5052522;28;20021;-63
2022/06/14 02:21:37;;;;;;;11.30;2.70;;;10.90;99.90;;;;;;5052569;28;20451;-62
2022/06/14 02:24:17;;;;;;;8.85;2.90;;;10.90;99.90;;;;;;5052544;28;20036;-64
2022/06/14 02:26:47;;;;;;;18.38;4.35;;;10.90;99.90;;;;;;5052869;28;20029;-66
2022/06/14 02:29:37;;;;;;;17.85;3.90;;;10.90;99.90;;;;;;5052619;28;20421;-63
2022/06/14 02:32:24;;;;;;;11.15;3.03;;;10.90;99.90;;;;;;5052887;28;20374;-66
2022/06/14 02:34:55;;;;;;;16.23;4.78;;;10.80;99.90;;;;;;5052824;28;20028;-63
2022/06/14 02:37:27;;;;;;;9.50;2.90;;;10.80;99.90;;;;;;5052508;28;20024;-68
2022/06/14 02:39:58;;;;;;;11.55;2.88;;;10.80;99.90;;;;;;5052438;28;20401;-64
2022/06/14 02:42:38;;;;;;;10.38;3.05;;;10.80;99.90;;;;;;5052444;28;20025;-64
2022/06/14 02:45:12;;;;;;;10.00;2.42;;;10.80;99.90;;;;;;5052605;28;20032;-63
2022/06/14 02:47:43;;;;;;;10.60;3.15;;;10.80;99.90;;;;;;5051608;28;20036;-63
2022/06/14 02:50:16;;;;;;;9.10;2.45;;;10.70;99.90;;;;;;5052072;28;20025;-64
2022/06/14 02:52:54;;;;;;;10.73;3.30;;;10.70;99.90;;;;;;5052579;28;20139;-63
2022/06/14 02:55:43;;;;;;;22.38;5.13;;;10.70;99.90;;;;;;5052727;28;20028;-63
2022/06/14 02:58:17;;;;;;;17.35;5.00;;;10.70;99.90;;;;;;5052575;28;20021;-62
2022/06/14 03:00:48;;;;;;;14.07;2.63;;;10.70;99.90;;;;;;5052172;28;20043;-63
2022/06/14 03:03:19;;;;;;;8.57;2.40;;;10.60;99.90;;;;;;5052278;28;20386;-65
2022/06/14 03:05:56;;;;;;;9.68;2.70;;;10.60;99.90;;;;;;5051904;28;20043;-63
2022/06/14 03:08:53;;;;;;;11.10;2.97;;;10.60;99.90;;;;;;5052077;28;20104;-63
2022/06/14 03:11:19;;;;;;;8.25;2.17;;;10.60;99.90;;;;;;5051875;28;20021;-63
2022/06/14 03:14:35;;;;;;;7.18;2.25;;;10.70;99.90;;;;;;5051335;28;20059;-63
2022/06/14 03:17:09;;;;;;;8.10;2.40;;;10.70;99.90;;;;;;5007492;28;20454;-63
2022/06/14 03:20:06;;;;;;;9.50;2.80;;;10.70;99.90;;;;;;5052311;28;20024;-66
2022/06/14 03:22:44;;;;;;;20.88;5.97;;;10.70;99.90;;;;;;5051997;28;20028;-67
2022/06/14 03:25:15;;;;;;;12.23;4.35;;;10.70;99.90;;;;;;5052027;28;20029;-62
2022/06/14 03:27:51;;;;;;;10.82;2.90;;;10.70;99.90;;;;;;5051949;28;20104;-65
2022/06/14 03:30:19;;;;;;;21.35;5.70;;;10.70;99.90;;;;;;5051996;28;20044;-65
2022/06/14 03:33:05;;;;;;;13.85;3.30;;;10.70;99.90;;;;;;5052603;28;20043;-63
2022/06/14 03:35:40;;;;;;;17.38;4.22;;;10.70;99.90;;;;;;5055860;28;20044;-61
2022/06/14 03:38:14;;;;;;;11.25;3.03;;;10.70;99.90;;;;;;5055504;28;20032;-63
2022/06/14 03:40:42;;;;;;;8.48;3.00;;;10.70;99.90;;;;;;5055663;28;20017;-62
2022/06/14 03:43:08;;;;;;;10.27;2.65;;;10.80;99.90;;;;;;5055690;28;20116;-64
2022/06/14 03:46:01;;;;;;;8.68;2.72;;;10.80;99.90;;;;;;5055281;28;20029;-65
2022/06/14 03:48:29;;;;;;;11.77;2.92;;;10.80;99.90;;;;;;5055161;28;20021;-63
2022/06/14 03:51:24;;;;;;;10.73;2.90;;;10.90;99.90;;;;;;5055311;28;20048;-65
2022/06/14 03:53:52;;;;;;;9.30;3.00;;;10.90;99.90;;;;;;5055485;28;20025;-63
2022/06/14 03:56:41;;;;;;;10.40;3.08;;;11.00;99.90;;;;;;5055232;28;20032;-62
2022/06/14 03:59:20;;;;;;;10.20;2.85;;;11.10;99.90;;;;;;5054886;28;20386;-63
2022/06/14 04:02:06;;;;;;;10.80;3.30;;;11.20;99.90;;;;;;5055082;28;20017;-62
2022/06/14 04:04:55;;;;;;;10.80;3.30;;;11.20;99.90;;;;;;5053549;28;20029;-65
2022/06/14 04:07:35;;;;;;;10.10;3.00;;;11.30;99.90;;;;;;5054568;28;20049;-67
2022/06/14 04:10:21;;;;;;;8.57;3.28;;;11.30;99.90;;;;;;5052105;28;20028;-64
2022/06/14 04:13:00;;;;;;;10.70;2.85;;;11.40;99.90;;;;;;5054075;28;20028;-66
2022/06/14 04:16:03;;;;;;;8.80;2.90;;;11.50;99.90;;;;;;5053264;28;20025;-64
2022/06/14 04:18:35;;;;;;;;;;;11.60;99.90;;;;;;5053242;28;20085;-62
2022/06/14 04:21:29;;;;;;;7.00;2.60;;;11.70;99.90;;;;;;5054578;28;19900;-63
2022/06/14 04:24:11;;;;;;;9.40;2.70;;;11.70;99.90;;;;;;5047338;28;20458;-64
2022/06/14 04:26:50;;;;;;;13.13;2.97;;;11.80;99.90;;;;;;5052578;28;20056;-64
2022/06/14 04:29:23;;;;;;;18.35;4.00;;;11.90;99.90;;;;;;5055040;28;20017;-66
2022/06/14 04:32:02;;;;;;;9.68;2.60;;;11.90;99.90;;;;;;5054558;28;20032;-63
2022/06/14 04:34:38;;;;;;;13.90;3.30;;;12.00;99.90;;;;;;5054521;28;20074;-63
2022/06/14 04:37:29;;;;;;;9.55;2.60;;;12.10;99.90;;;;;;5054746;28;20083;-63
2022/06/14 04:40:02;;;;;;;8.23;3.58;;;12.10;99.90;;;;;;5048155;28;20029;-66
2022/06/14 04:42:37;;;;;;;9.85;2.30;;;12.20;99.90;;;;;;5052521;28;20068;-63
2022/06/14 04:45:15;;;;;;;9.82;2.33;;;12.20;99.90;;;;;;5053716;28;20362;-63
2022/06/14 04:48:07;;;;;;;6.65;2.53;;;12.30;99.90;;;;;;5054424;28;20017;-65
2022/06/14 04:50:48;;;;;;;10.75;2.60;;;12.40;99.90;;;;;;5054256;28;20160;-63
2022/06/14 04:53:43;;;;;;;7.43;2.35;;;12.50;99.90;;;;;;5053246;28;20107;-65
2022/06/14 04:56:18;;;;;;;8.23;2.75;;;12.60;99.90;;;;;;5042888;28;20093;-63
2022/06/14 04:58:57;;;;;;;17.95;4.25;;;12.70;99.90;;;;;;5052080;28;20454;-63
2022/06/14 05:01:31;;;;;;;11.45;3.10;;;12.80;99.90;;;;;;5052310;28;20474;-63
2022/06/14 05:04:04;;;;;;;7.68;2.33;;;13.00;99.90;;;;;;5054280;28;20055;-63
2022/06/14 05:06:40;;;;;;;9.55;2.50;;;13.10;99.90;;;;;;5054204;28;20025;-64
2022/06/14 05:09:14;;;;;;;7.70;2.60;;;13.20;99.90;;;;;;5053058;28;20021;-67
2022/06/14 05:11:51;;;;;;;8.10;2.70;;;13.40;99.90;;;;;;5052541;28;20347;-65
2022/06/14 05:14:27;;;;;;;18.92;5.60;;;13.60;99.90;;;;;;5054137;28;20037;-63
2022/06/14 05:16:58;;;;;;;59.30;18.58;;;13.80;99.90;;;;;;5054140;28;20509;-65
2022/06/14 05:19:48;;;;;;;25.95;7.72;;;14.00;99.90;;;;;;5054233;28;20025;-62
2022/06/14 05:22:30;;;;;;;11.90;3.97;;;14.20;99.90;;;;;;5054039;28;20074;-62
2022/06/14 05:24:56;;;;;;;;;;;14.40;99.90;;;;;;5054609;28;20060;-65
2022/06/14 05:27:32;;;;;;;10.00;3.20;;;14.80;99.90;;;;;;5052480;28;20327;-67
2022/06/14 05:30:10;;;;;;;20.67;5.20;;;15.10;99.90;;;;;;5053709;28;20100;-65
2022/06/14 05:33:10;;;;;;;24.48;9.43;;;15.70;99.90;;;;;;5053674;28;20068;-62
2022/06/14 05:35:49;;;;;;;7.05;2.40;;;16.40;99.90;;;;;;5053635;28;20025;-62
2022/06/14 05:38:37;;;;;;;7.15;2.50;;;17.10;99.90;;;;;;5053757;28;20036;-65
2022/06/14 05:41:28;;;;;;;16.80;4.72;;;17.80;99.90;;;;;;5054065;28;20017;-66
2022/06/14 05:44:06;;;;;;;8.70;2.42;;;18.40;99.90;;;;;;5053497;28;20029;-64
2022/06/14 05:46:36;;;;;;;11.18;2.90;;;19.10;99.90;;;;;;5053983;28;20036;-65
2022/06/14 05:49:10;;;;;;;7.35;1.75;;;19.80;99.90;;;;;;5053714;28;20340;-64
2022/06/14 05:51:56;;;;;;;10.35;3.03;;;20.60;99.90;;;;;;5053324;28;20024;-65
2022/06/14 05:54:25;;;;;;;6.30;1.60;;;21.40;99.40;;;;;;5053193;28;20490;-65
2022/06/14 05:56:59;;;;;;;7.88;2.90;;;22.10;98.00;;;;;;5052390;28;20021;-63
2022/06/14 05:59:37;;;;;;;15.52;3.85;;;22.60;96.50;;;;;;5053276;28;20099;-63
2022/06/14 06:02:34;;;;;;;4.38;1.83;;;23.30;95.90;;;;;;5052831;28;20020;-64
2022/06/14 06:05:16;;;;;;;9.82;3.10;;;24.20;94.60;;;;;;5053058;28;20032;-63
2022/06/14 06:07:55;;;;;;;6.72;2.30;;;24.70;92.20;;;;;;5053301;28;20737;-67
2022/06/14 06:10:28;;;;;;;6.53;1.60;;;25.10;91.30;;;;;;5053165;28;20107;-63
2022/06/14 06:13:08;;;;;;;9.63;2.85;;;25.70;90.90;;;;;;5053309;28;20021;-63
2022/06/14 06:15:51;;;;;;;7.32;2.75;;;26.30;88.90;;;;;;5053443;28;20431;-65
2022/06/14 06:18:33;;;;;;;6.63;2.35;;;26.70;85.00;;;;;;5053093;28;20028;-65
2022/06/14 06:21:03;;;;;;;5.60;2.50;;;26.80;82.60;;;;;;5053281;28;20028;-63
2022/06/14 06:23:43;;;;;;;9.35;1.80;;;27.10;82.40;;;;;;5053257;28;20104;-63
2022/06/14 06:26:11;;;;;;;3.67;1.58;;;27.50;81.70;;;;;;5053035;28;20120;-64
2022/06/14 06:28:43;;;;;;;5.85;2.03;;;27.90;78.30;;;;;;5052090;28;20024;-63
2022/06/14 06:31:17;;;;;;;5.07;1.70;;;28.10;78.20;;;;;;5052557;28;20151;-64
2022/06/14 06:33:48;;;;;;;7.95;1.52;;;28.50;76.90;;;;;;5053069;28;20091;-65
2022/06/14 06:36:38;;;;;;;6.75;2.25;;;28.70;74.90;;;;;;5052713;28;20027;-65
2022/06/14 06:39:25;;;;;;;4.03;1.50;;;28.80;74.70;;;;;;5052664;28;20025;-67
2022/06/14 06:41:56;;;;;;;4.13;1.38;;;29.10;73.40;;;;;;5052948;28;20074;-65
2022/06/14 06:44:37;;;;;;;;;;;29.40;71.90;;;;;;5053294;28;20035;-61
2022/06/14 06:47:30;;;;;;;4.05;1.35;;;29.40;71.50;;;;;;5052807;28;20002;-63
2022/06/14 06:50:17;;;;;;;3.03;1.30;;;29.50;70.40;;;;;;5052395;28;20028;-67
2022/06/14 06:52:55;;;;;;;4.90;1.60;;;29.60;70.20;;;;;;5052761;28;20025;-62
2022/06/14 06:55:52;;;;;;;4.30;1.13;;;30.00;69.00;;;;;;5052620;28;20054;-62
2022/06/14 06:58:35;;;;;;;4.28;1.40;;;30.30;68.40;;;;;;5052234;28;20029;-67
2022/06/14 07:01:12;;;;;;;7.53;1.67;;;30.60;67.50;;;;;;5052520;28;20087;-64
2022/06/14 07:04:01;;;;;;;4.80;1.30;;;30.70;66.10;;;;;;5052843;28;20354;-62
2022/06/14 07:06:46;;;;;;;3.25;1.05;;;30.50;66.20;;;;;;5051560;28;20043;-66
2022/06/14 07:09:31;;;;;;;5.07;1.00;;;30.50;65.60;;;;;;5052395;28;20021;-65
2022/06/14 07:12:02;;;;;;;5.88;1.80;;;30.30;66.30;;;;;;5052423;28;20028;-63
2022/06/14 07:14:40;;;;;;;4.43;1.80;;;30.50;66.70;;;;;;5052323;28;20116;-63
2022/06/14 07:17:50;;;;;;;4.68;1.17;;;30.80;65.30;;;;;;5052216;28;20116;-67
2022/06/14 07:20:50;;;;;;;5.85;1.40;;;30.70;65.30;;;;;;5014863;28;20041;-67
2022/06/14 07:23:48;;;;;;;3.80;1.45;;;30.40;65.50;;;;;;5052385;28;20044;-64
2022/06/14 07:26:34;;;;;;;5.28;1.30;;;30.50;65.20;;;;;;5052022;28;20116;-66
2022/06/14 07:29:21;;;;;;;4.15;1.30;;;30.10;64.70;;;;;;5051819;28;20099;-66
2022/06/14 07:31:58;;;;;;;4.18;1.48;;;29.30;64.70;;;;;;5051581;28;20060;-63
2022/06/14 07:34:26;;;;;;;6.18;1.42;;;28.70;65.70;;;;;;5052524;28;20031;-66
2022/06/14 07:37:07;;;;;;;4.15;1.30;;;28.50;66.20;;;;;;5052214;28;20486;-63
2022/06/14 07:39:47;;;;;;;4.47;1.40;;;28.50;66.30;;;;;;5052226;28;20025;-63
2022/06/14 07:42:24;;;;;;;3.55;1.40;;;28.50;65.70;;;;;;5052081;28;20082;-63
2022/06/14 07:45:05;;;;;;;3.97;1.45;;;28.30;65.20;;;;;;5052112;28;20111;-62
2022/06/14 07:48:00;;;;;;;3.00;1.33;;;28.00;66.10;;;;;;5052155;28;20048;-64
2022/06/14 07:50:47;;;;;;;1.00;0.80;;;28.00;66.10;;;;;;5052093;28;20029;-63
2022/06/14 07:53:35;;;;;;;5.93;1.55;;;28.40;64.70;;;;;;5050011;28;20103;-66
2022/06/14 07:56:26;;;;;;;7.35;1.40;;;28.80;64.30;;;;;;5051428;28;20021;-63
2022/06/14 07:58:58;;;;;;;3.28;1.08;;;28.80;64.90;;;;;;5051273;28;20044;-67
2022/06/14 08:01:30;;;;;;;4.15;1.35;;;29.00;64.20;;;;;;5051733;28;20072;-66
2022/06/14 08:04:18;;;;;;;4.47;1.55;;;29.30;63.90;;;;;;5051074;28;20021;-64
2022/06/14 08:07:04;;;;;;;5.82;1.55;;;29.50;63.70;;;;;;5051320;28;20048;-64
2022/06/14 08:09:40;;;;;;;3.78;1.30;;;29.70;63.50;;;;;;5051874;28;20024;-63
2022/06/14 08:12:26;;;;;;;4.45;1.20;;;29.80;63.20;;;;;;5051800;28;20055;-65
2022/06/14 08:15:06;;;;;;;7.22;1.48;;;29.50;63.60;;;;;;5050154;28;20470;-64
2022/06/14 08:17:47;;;;;;;5.85;1.42;;;29.30;63.50;;;;;;5048849;28;20021;-63
2022/06/14 08:20:26;;;;;;;6.82;2.10;;;29.10;63.40;;;;;;5054980;28;20108;-64
2022/06/14 08:22:59;;;;;;;7.07;1.48;;;29.00;64.30;;;;;;5055216;28;20028;-66
2022/06/14 08:25:36;;;;;;;4.85;1.27;;;28.70;62.70;;;;;;5055145;28;20504;-63
2022/06/14 08:28:21;;;;;;;4.70;1.38;;;28.60;63.50;;;;;;5055236;28;20132;-63
2022/06/14 08:31:08;;;;;;;5.00;1.48;;;28.50;64.30;;;;;;5054968;28;20124;-64
2022/06/14 08:33:56;;;;;;;3.17;1.27;;;28.60;64.50;;;;;;5055221;28;20021;-62
2022/06/14 08:36:27;;;;;;;5.78;1.27;;;28.40;64.20;;;;;;5054902;28;20523;-64
2022/06/14 08:38:58;;;;;;;2.90;1.55;;;28.40;63.80;;;;;;5054978;28;20021;-65
2022/06/14 08:41:24;;;;;;;3.77;1.27;;;28.60;64.60;;;;;;5054782;28;20128;-63
2022/06/14 08:43:55;;;;;;;4.65;1.08;;;29.20;63.70;;;;;;5054507;28;20104;-66
2022/06/14 08:46:29;;;;;;;2.95;1.20;;;29.60;62.50;;;;;;5054379;28;20358;-67
2022/06/14 08:49:08;;;;;;;5.20;1.55;;;29.90;62.20;;;;;;5054985;28;20021;-65
2022/06/14 08:51:49;;;;;;;3.85;1.20;;;30.90;62.10;;;;;;5039083;28;20436;-67
2022/06/14 08:54:42;;;;;;;5.25;1.27;;;32.00;59.70;;;;;;5074624;28;20424;-64
2022/06/14 08:57:32;;;;;;;3.53;1.40;;;33.10;59.10;;;;;;5060634;28;20025;-64
2022/06/14 09:00:22;;;;;;;5.43;1.80;;;34.00;57.30;;;;;;5054318;28;20021;-63
2022/06/14 09:03:21;;;;;;;8.88;2.13;;;34.40;56.10;;;;;;5068569;28;20465;-66
2022/06/14 09:06:09;;;;;;;6.25;1.40;;;35.10;55.70;;;;;;5061686;28;20465;-65
2022/06/14 09:08:59;;;;;;;2.47;1.58;;;35.50;54.50;;;;;;5065970;28;20067;-64
2022/06/14 09:12:05;;;;;;;5.55;1.60;;;35.60;53.60;;;;;;5070950;28;20493;-67
2022/06/14 09:14:36;;;;;;;4.07;1.50;;;35.60;52.60;;;;;;5063741;28;20017;-63
2022/06/14 09:17:20;;;;;;;5.30;1.50;;;35.40;52.10;;;;;;5063384;28;20035;-66
2022/06/14 09:19:58;;;;;;;3.97;1.60;;;35.60;51.90;;;;;;5070970;28;20381;-63
2022/06/14 09:22:46;;;;;;;5.72;1.30;;;35.80;51.70;;;;;;5066763;28;20508;-66
2022/06/14 09:25:32;;;;;;;2.70;1.60;;;36.30;51.40;;;;;;5068051;28;20060;-64
2022/06/14 09:28:29;;;;;;;3.38;1.30;;;37.10;50.20;;;;;;5068719;28;20028;-64
2022/06/14 09:30:57;;;;;;;3.65;1.35;;;37.80;49.40;;;;;;5066408;28;20076;-67
2022/06/14 09:33:35;;;;;;;2.30;1.40;;;38.70;48.10;;;;;;5067257;28;20020;-64
2022/06/14 09:36:15;;;;;;;5.25;1.50;;;39.50;47.00;;;;;;5071058;28;20117;-65
2022/06/14 09:38:50;;;;;;;4.63;1.90;;;40.10;46.50;;;;;;5061156;28;20090;-63
2022/06/14 09:41:34;;;;;;;4.63;1.33;;;40.20;45.50;;;;;;5064278;28;20016;-64
2022/06/14 09:44:21;;;;;;;5.03;1.42;;;39.30;46.10;;;;;;5065053;28;20450;-64
2022/06/14 09:47:17;;;;;;;2.83;1.58;;;37.90;47.10;;;;;;5067944;28;20079;-67
2022/06/14 09:49:52;;;;;;;3.35;1.58;;;36.60;47.60;;;;;;5070910;28;20042;-63
2022/06/14 09:52:28;;;;;;;6.10;1.60;;;35.40;48.60;;;;;;5067238;28;20374;-64
2022/06/14 09:55:13;;;;;;;7.10;2.28;;;34.10;49.90;;;;;;5069280;28;21423;-64
2022/06/14 09:58:02;;;;;;;6.68;1.30;;;32.90;51.20;;;;;;5061818;28;20027;-66
2022/06/14 10:01:09;;;;;;;9.25;1.60;;;31.80;52.50;;;;;;5070603;28;20059;-65
2022/06/14 10:03:56;;;;;;;7.88;3.03;;;30.70;53.70;;;;;;5017970;28;20040;-63
2022/06/14 10:06:53;;;;;;;8.73;1.77;;;29.40;54.80;;;;;;5067171;28;20036;-62
2022/06/14 10:09:28;;;;;;;6.40;1.92;;;28.30;56.00;;;;;;5067201;28;20123;-64
2022/06/14 10:12:02;;;;;;;5.47;1.30;;;27.50;57.30;;;;;;5073076;28;20097;-65
2022/06/14 10:14:56;;;;;;;3.72;1.38;;;27.00;58.30;;;;;;5072135;28;20104;-65
2022/06/14 10:18:00;;;;;;;5.57;1.58;;;26.60;59.20;;;;;;5071483;28;20024;-67
2022/06/14 10:20:44;;;;;;;6.22;1.30;;;26.20;59.80;;;;;;4990663;28;20078;-64
2022/06/14 10:23:37;;;;;;;8.50;2.42;;;25.90;60.30;;;;;;5067230;28;20032;-64
2022/06/14 10:29:26;;;;;;;7.93;1.80;;;25.60;61.30;;;;;;5020002;28;20028;-64
2022/06/14 10:31:54;;;;;;;3.13;1.17;;;25.60;61.80;;;;;;5051706;28;20049;-62
2022/06/14 10:34:41;;;;;;;1.60;1.00;;;25.60;62.20;;;;;;5052152;28;20024;-63
2022/06/14 10:37:14;;;;;;;3.28;1.40;;;25.60;62.60;;;;;;5052002;28;20664;-65
2022/06/14 10:40:01;;;;;;;3.90;1.10;;;25.70;62.90;;;;;;5052406;28;20031;-63
2022/06/14 10:43:05;;;;;;;5.32;1.35;;;25.90;62.80;;;;;;5052221;28;20107;-64
2022/06/14 10:45:44;;;;;;;4.93;1.48;;;26.10;62.40;;;;;;5038245;28;20082;-62
2022/06/14 10:48:12;;;;;;;5.15;1.38;;;26.40;62.00;;;;;;5052361;28;20017;-63
2022/06/14 10:50:59;;;;;;;3.45;1.15;;;26.60;61.90;;;;;;5051905;28;20020;-64
2022/06/14 10:53:52;;;;;;;3.85;1.27;;;26.90;61.40;;;;;;5050629;28;20477;-66
2022/06/14 10:56:30;;;;;;;3.75;1.35;;;27.30;60.70;;;;;;5052414;28;20017;-66
2022/06/14 10:59:07;;;;;;;3.20;1.42;;;27.50;60.30;;;;;;5052357;28;20021;-63
2022/06/14 11:01:39;;;;;;;3.53;1.20;;;27.80;59.70;;;;;;5052111;28;20025;-63
2022/06/14 11:04:12;;;;;;;5.15;1.60;;;28.40;59.30;;;;;;5052064;28;20092;-67
2022/06/14 11:06:46;;;;;;;5.72;1.30;;;28.90;58.70;;;;;;5052022;28;20099;-63
2022/06/14 11:09:22;;;;;;;3.03;1.40;;;29.90;58.20;;;;;;5052287;28;20094;-63
2022/06/14 11:12:19;;;;;;;3.13;1.73;;;31.30;56.00;;;;;;5051749;28;20044;-65
2022/06/14 11:15:08;;;;;;;3.42;1.48;;;31.80;55.50;;;;;;5050841;28;20017;-64
2022/06/14 11:17:57;;;;;;;4.75;1.15;;;31.60;54.80;;;;;;5049956;28;20029;-64
2022/06/14 11:20:38;;;;;;;6.70;1.55;;;31.20;54.90;;;;;;5051427;28;20111;-64
2022/06/14 11:23:12;;;;;;;5.43;1.40;;;31.00;55.30;;;;;;5052192;28;20063;-65
2022/06/14 11:26:02;;;;;;;3.72;1.35;;;30.90;55.10;;;;;;5052213;28;20040;-63
2022/06/14 11:28:51;;;;;;;4.55;1.55;;;30.70;55.20;;;;;;5052001;28;20043;-63
2022/06/14 11:31:48;;;;;;;5.57;1.25;;;30.00;56.30;;;;;;5052062;28;20044;-65
2022/06/14 11:34:31;;;;;;;6.18;1.40;;;29.60;57.00;;;;;;5051620;28;20056;-63
2022/06/14 11:37:18;;;;;;;3.95;1.40;;;29.40;56.90;;;;;;5051789;28;20099;-64
2022/06/14 11:40:14;;;;;;;2.97;1.20;;;29.30;57.40;;;;;;5052214;28;20032;-63
2022/06/14 11:43:19;;;;;;;3.20;1.45;;;30.20;56.70;;;;;;5052232;28;20111;-62
2022/06/14 11:46:02;;;;;;;4.78;1.35;;;30.60;56.40;;;;;;5052035;28;20033;-64
2022/06/14 11:48:52;;;;;;;5.68;1.40;;;30.50;56.70;;;;;;5051936;28;20466;-64
2022/06/14 11:51:33;;;;;;;4.63;1.30;;;31.10;56.00;;;;;;5051868;28;20028;-63
2022/06/14 11:54:16;;;;;;;5.50;1.60;;;31.50;56.00;;;;;;5053244;28;20196;-65
2022/06/14 11:57:09;;;;;;;2.08;1.20;;;31.20;55.50;;;;;;5055435;28;20035;-63
2022/06/14 11:59:44;;;;;;;6.97;1.58;;;30.60;55.90;;;;;;5055373;28;20017;-63
2022/06/14 12:02:25;;;;;;;6.82;1.70;;;30.50;56.00;;;;;;5055775;28;20104;-63
2022/06/14 12:05:03;;;;;;;5.38;1.48;;;31.40;55.10;;;;;;5055582;28;20029;-64
2022/06/14 12:07:47;;;;;;;2.30;1.38;;;32.70;54.10;;;;;;5055791;28;20454;-66
2022/06/14 12:10:33;;;;;;;5.47;1.10;;;34.10;53.00;;;;;;5055513;28;20056;-64
2022/06/14 12:13:30;;;;;;;4.60;1.20;;;35.50;51.70;;;;;;5055605;28;20056;-64
2022/06/14 12:16:09;;;;;;;3.88;1.15;;;36.80;51.10;;;;;;5054691;28;20021;-63
2022/06/14 12:18:38;;;;;;;3.05;1.15;;;37.70;50.00;;;;;;5054928;28;20540;-63
2022/06/14 12:21:19;;;;;;;3.88;1.25;;;38.40;49.50;;;;;;5055458;28;20060;-65
2022/06/14 12:24:01;;;;;;;;;;;38.90;48.70;;;;;;5055957;28;20033;-65
2022/06/14 12:26:40;;;;;;;;;;;38.80;48.10;;;;;;5054211;28;20304;-65
2022/06/14 12:29:09;;;;;;;3.47;1.48;;;38.50;47.40;;;;;;5052281;28;19907;-64
2022/06/14 12:31:35;;;;;;;4.85;2.13;;;37.20;48.00;;;;;;5054957;28;20080;-66
2022/06/14 12:34:12;;;;;;;3.08;1.48;;;36.10;48.80;;;;;;5054952;28;20087;-65
2022/06/14 12:36:59;;;;;;;5.55;2.05;;;34.80;49.30;;;;;;5055130;28;20023;-68
2022/06/14 12:39:31;;;;;;;4.75;1.65;;;33.60;50.60;;;;;;5054752;28;20351;-63
2022/06/14 12:42:08;;;;;;;5.10;1.55;;;32.60;51.40;;;;;;5054713;28;20031;-63
2022/06/14 12:45:08;;;;;;;6.03;1.95;;;31.70;52.70;;;;;;5054778;28;20020;-64
2022/06/14 12:47:34;;;;;;;2.60;1.42;;;31.10;53.10;;;;;;5051028;28;20071;-64
2022/06/14 12:50:15;;;;;;;5.65;1.55;;;30.50;53.80;;;;;;5054606;28;20029;-67
2022/06/14 12:52:51;;;;;;;7.97;1.52;;;30.00;54.60;;;;;;5054601;28;20025;-63
2022/06/14 12:55:20;;;;;;;4.10;1.90;;;29.80;55.20;;;;;;5054411;28;20036;-64
2022/06/14 12:58:14;;;;;;;3.20;1.77;;;29.90;55.20;;;;;;5054776;28;20029;-63
2022/06/14 13:00:47;;;;;;;6.50;1.95;;;30.10;55.30;;;;;;5054344;28;20083;-63
2022/06/14 13:03:19;;;;;;;5.80;1.83;;;30.50;55.10;;;;;;5054351;28;20021;-64
2022/06/14 13:05:58;;;;;;;;;;;31.00;54.60;;;;;;5054444;28;20037;-64
2022/06/14 13:08:35;;;;;;;3.20;1.30;;;31.40;54.20;;;;;;5054215;28;19907;-63
2022/06/14 13:11:17;;;;;;;1.83;1.30;;;31.60;54.10;;;;;;5053941;28;20017;-63
2022/06/14 13:13:52;;;;;;;3.95;1.40;;;31.40;53.90;;;;;;5052938;28;20028;-64
2022/06/14 13:16:50;;;;;;;6.82;2.30;;;31.30;53.60;;;;;;5054280;28;20025;-63
2022/06/14 13:19:25;;;;;;;5.18;2.10;;;31.20;54.00;;;;;;5053959;28;20461;-64
2022/06/14 13:22:05;;;;;;;5.57;2.47;;;30.90;54.30;;;;;;5053573;28;20029;-63
2022/06/14 13:25:01;;;;;;;8.75;2.00;;;30.60;54.40;;;;;;5054146;28;20166;-64
2022/06/14 13:27:35;;;;;;;7.10;1.88;;;30.20;54.60;;;;;;5053600;28;20061;-63
2022/06/14 13:31:20;;;;;;;6.45;2.53;;;29.80;55.00;;;;;;5053691;28;20459;-63
2022/06/14 13:34:03;;;;;;;6.40;1.52;;;29.50;55.80;;;;;;4981733;28;20050;-63
2022/06/14 13:36:46;;;;;;;6.40;1.75;;;29.30;55.90;;;;;;4972861;28;20105;-63
2022/06/14 13:39:37;;;;;;;4.13;1.58;;;29.10;56.40;;;;;;5040399;28;20439;-63
2022/06/14 13:42:32;;;;;;;4.97;1.35;;;29.00;56.20;;;;;;5053370;28;20500;-66
2022/06/14 13:45:08;;;;;;;7.55;1.80;;;29.00;56.30;;;;;;5053989;28;20021;-63
2022/06/14 13:47:42;;;;;;;5.20;1.63;;;28.90;56.50;;;;;;5053766;28;20028;-64
2022/06/14 13:50:20;;;;;;;4.28;1.90;;;28.80;56.40;;;;;;5052219;28;20462;-64
2022/06/14 13:52:54;;;;;;;6.18;2.33;;;28.60;56.60;;;;;;5053441;28;20058;-64
2022/06/14 13:55:29;;;;;;;8.05;2.13;;;28.40;57.00;;;;;;5053635;28;20032;-63
2022/06/14 13:58:03;;;;;;;4.13;1.58;;;28.20;57.20;;;;;;5052298;28;20033;-63